createdAt,value
2023-01-05T00:00:25.315Z,40.92
2023-01-05T00:05:29.463Z,42.09
2023-01-05T00:10:52.332Z,41.76
2023-01-05T00:16:16.343Z,41.27
2023-01-05T00:21:40.006Z,40.86
2023-01-05T00:26:45.008Z,41.64
2023-01-05T00:31:49.083Z,40.95
2023-01-05T00:36:53.240Z,40.83
2023-01-05T00:41:58.132Z,41.05
2023-01-05T00:47:02.761Z,39.75
2023-01-05T00:52:08.091Z,39.90
2023-01-05T00:57:16.682Z,39.00
2023-01-05T01:02:21.581Z,39.40
2023-01-05T01:07:27.428Z,40.09
2023-01-05T01:12:32.190Z,39.07
2023-01-05T01:17:37.184Z,38.73
2023-01-05T01:22:41.807Z,39.18
2023-01-05T01:27:45.894Z,39.21
2023-01-05T01:32:50.535Z,38.39
2023-01-05T01:37:55.098Z,38.21
2023-01-05T01:43:00.726Z,38.56
2023-01-05T01:48:05.929Z,38.14
2023-01-05T01:53:16.243Z,39.50
2023-01-05T01:58:19.955Z,38.46
2023-01-05T02:03:23.569Z,37.88
2023-01-05T02:08:33.614Z,38.15
2023-01-05T02:13:41.585Z,37.36
2023-01-05T02:18:46.321Z,38.19
2023-01-05T02:24:02.836Z,38.30
2023-01-05T02:29:06.618Z,40.35
2023-01-05T02:34:35.411Z,36.78
2023-01-05T02:39:48.507Z,38.08
2023-01-05T02:44:53.194Z,37.65
2023-01-05T02:50:20.733Z,38.09
2023-01-05T02:55:37.894Z,37.42
2023-01-05T03:01:07.434Z,37.45
2023-01-05T03:06:25.286Z,37.98
2023-01-05T03:12:03.681Z,36.96
2023-01-05T03:17:08.966Z,37.54
2023-01-05T03:22:43.820Z,37.29
2023-01-05T03:28:09.568Z,36.91
2023-01-05T03:33:58.395Z,36.75
2023-01-05T03:39:07.542Z,36.93
2023-01-05T03:44:13.283Z,37.32
2023-01-05T03:49:18.988Z,37.24
2023-01-05T03:54:26.397Z,36.88
2023-01-05T03:59:31.720Z,36.66
2023-01-05T04:04:38.045Z,36.92
2023-01-05T04:09:46.646Z,36.71
2023-01-05T04:14:51.981Z,36.66
2023-01-05T04:19:58.320Z,36.86
2023-01-05T04:25:04.779Z,36.53
2023-01-05T04:30:10.144Z,36.49
2023-01-05T04:35:16.147Z,36.72
2023-01-05T04:40:22.799Z,36.97
2023-01-05T04:45:31.247Z,36.51
2023-01-05T04:51:05.503Z,36.74
2023-01-05T04:56:14.082Z,36.68
2023-01-05T05:01:22.065Z,36.57
2023-01-05T05:06:30.724Z,36.52
2023-01-05T05:11:38.195Z,36.59
2023-01-05T05:16:42.922Z,36.04
2023-01-05T05:21:48.433Z,36.04
2023-01-05T05:26:53.838Z,36.08
2023-01-05T05:31:58.891Z,36.21
2023-01-05T05:37:04.675Z,35.88
2023-01-05T05:42:09.391Z,35.99
2023-01-05T05:47:13.965Z,35.90
2023-01-05T05:52:19.135Z,35.86
2023-01-05T05:57:25.094Z,35.86
2023-01-05T06:02:30.608Z,35.74
2023-01-05T06:07:36.166Z,35.82
2023-01-05T06:12:40.731Z,35.37
2023-01-05T06:17:49.877Z,35.72
2023-01-05T06:22:56.057Z,35.70
2023-01-05T06:28:00.952Z,35.46
2023-01-05T06:33:09.378Z,35.16
2023-01-05T06:38:17.398Z,35.20
2023-01-05T06:43:22.982Z,35.81
2023-01-05T06:48:28.243Z,35.14
2023-01-05T06:53:33.579Z,35.22
2023-01-05T06:58:38.857Z,35.67
2023-01-05T07:03:43.891Z,35.28
2023-01-05T07:08:49.121Z,35.63
2023-01-05T07:13:54.460Z,34.84
2023-01-05T07:18:59.701Z,35.06
2023-01-05T07:24:06.029Z,35.57
2023-01-05T07:29:11.406Z,35.10
2023-01-05T07:34:16.688Z,35.16
2023-01-05T07:39:22.105Z,34.83
2023-01-05T07:44:27.594Z,35.16
2023-01-05T07:49:36.995Z,34.87
2023-01-05T07:54:41.301Z,35.38
2023-01-05T07:59:46.210Z,34.68
2023-01-05T08:04:52.659Z,35.04
2023-01-05T08:10:16.037Z,35.28
2023-01-05T08:15:20.981Z,34.81
2023-01-05T08:20:27.715Z,35.49
2023-01-05T08:25:34.348Z,35.00
2023-01-05T08:30:39.933Z,35.35
2023-01-05T08:35:46.950Z,34.68
2023-01-05T08:40:52.919Z,34.86
2023-01-05T08:45:57.984Z,35.21
2023-01-05T08:51:08.717Z,35.44
2023-01-05T08:56:14.298Z,35.27
2023-01-05T09:01:22.402Z,35.16
2023-01-05T09:06:26.825Z,36.26
2023-01-05T09:11:31.418Z,35.43
2023-01-05T09:22:02.600Z,35.33
2023-01-05T09:27:09.866Z,35.95
2023-01-05T09:32:14.729Z,35.63
2023-01-05T09:37:19.391Z,35.59
2023-01-05T09:42:28.800Z,35.90
2023-01-05T09:47:43.378Z,35.87
2023-01-05T09:52:47.822Z,36.01
2023-01-05T09:58:08.893Z,35.54
2023-01-05T10:04:01.996Z,36.14
2023-01-05T10:08:53.261Z,36.37
2023-01-05T10:14:09.265Z,36.63
2023-01-05T10:19:20.026Z,36.61
2023-01-05T10:24:44.094Z,36.13
2023-01-05T10:29:50.705Z,36.79
2023-01-05T10:35:00.299Z,36.72
2023-01-05T10:40:05.569Z,36.57
2023-01-05T10:45:17.256Z,36.32
2023-01-05T10:50:37.513Z,36.29
2023-01-05T10:56:06.935Z,36.65
2023-01-05T11:01:30.908Z,36.86
2023-01-05T11:06:34.908Z,37.89
2023-01-05T11:11:39.955Z,39.36
2023-01-05T11:16:53.139Z,38.59
2023-01-05T11:22:01.876Z,38.59
2023-01-05T11:27:26.685Z,36.78
2023-01-05T11:32:31.588Z,37.78
2023-01-05T11:37:35.534Z,36.66
2023-01-05T11:42:44.862Z,37.14
2023-01-05T11:47:50.878Z,37.47
2023-01-05T11:52:58.480Z,37.34
2023-01-05T11:58:24.463Z,37.25
2023-01-05T12:04:07.194Z,37.32
2023-01-05T12:09:36.449Z,36.36
2023-01-05T12:15:08.435Z,37.72
2023-01-05T12:20:22.317Z,39.22
2023-01-05T12:25:37.244Z,38.19
2023-01-05T12:33:19.382Z,39.28
2023-01-05T12:36:45.103Z,39.51
2023-01-05T12:41:52.766Z,39.04
2023-01-05T12:47:25.077Z,39.47
2023-01-05T12:52:43.940Z,40.10
2023-01-05T12:57:53.942Z,39.94
2023-01-05T13:03:15.375Z,38.63
2023-01-05T13:08:27.539Z,39.54
2023-01-05T13:13:31.701Z,40.10
2023-01-05T13:18:43.342Z,39.22
2023-01-05T13:23:58.520Z,39.56
2023-01-05T13:29:06.117Z,39.35
2023-01-05T13:34:16.105Z,39.16
2023-01-05T13:39:27.693Z,39.68
2023-01-05T13:44:50.940Z,40.25
2023-01-05T13:50:18.227Z,39.74
2023-01-05T13:55:26.176Z,40.19
2023-01-05T14:00:44.479Z,39.88
2023-01-05T14:06:02.750Z,39.19
2023-01-05T14:11:22.042Z,39.08
2023-01-05T14:16:46.317Z,39.94
2023-01-05T14:21:51.250Z,40.99
2023-01-05T14:27:23.199Z,39.95
2023-01-05T14:32:28.219Z,38.88
2023-01-05T14:37:53.900Z,39.39
2023-01-05T14:43:01.218Z,39.40
2023-01-05T14:48:26.458Z,37.82
2023-01-05T14:53:52.989Z,37.87
2023-01-05T14:59:01.469Z,39.58
2023-01-05T15:04:09.827Z,40.60
2023-01-05T15:09:24.357Z,39.95
2023-01-05T15:14:53.988Z,39.29
2023-01-05T15:20:15.242Z,39.73
2023-01-05T15:25:24.790Z,41.13
2023-01-05T15:30:48.389Z,41.51
2023-01-05T15:35:58.406Z,39.37
2023-01-05T15:41:14.639Z,39.40
2023-01-05T15:46:24.611Z,39.22
2023-01-05T15:51:32.396Z,39.37
2023-01-05T15:56:37.181Z,38.99
2023-01-05T16:01:42.232Z,38.59
2023-01-05T16:06:50.147Z,39.99
2023-01-05T16:11:58.722Z,40.06
2023-01-05T16:17:13.482Z,40.18
2023-01-05T16:22:20.181Z,41.02
2023-01-05T16:27:25.306Z,40.37
2023-01-05T16:32:36.027Z,40.21
2023-01-05T16:37:42.587Z,40.89
2023-01-05T16:42:49.440Z,41.41
2023-01-05T16:47:55.199Z,42.13
2023-01-05T16:53:05.046Z,38.45
2023-01-05T16:58:31.317Z,39.25
2023-01-05T17:03:36.390Z,39.37
2023-01-05T17:08:42.351Z,39.98
2023-01-05T17:13:51.574Z,39.58
2023-01-05T17:18:57.560Z,41.13
2023-01-05T17:24:05.090Z,40.59
2023-01-05T17:29:18.815Z,41.05
2023-01-05T17:34:24.819Z,40.77
2023-01-05T17:44:39.840Z,41.70
2023-01-05T17:49:45.104Z,42.05
2023-01-05T17:54:50.568Z,41.01
2023-01-05T17:59:55.688Z,40.50
2023-01-05T18:04:59.784Z,43.37
2023-01-05T18:10:04.240Z,40.52
2023-01-05T18:15:09.673Z,40.64
2023-01-05T18:20:17.706Z,40.70
2023-01-05T18:25:25.138Z,40.56
2023-01-05T18:30:30.416Z,40.71
2023-01-05T18:35:37.257Z,42.31
2023-01-05T18:40:47.919Z,41.66
2023-01-05T18:45:58.571Z,41.69
2023-01-05T18:51:02.060Z,42.71
2023-01-05T18:56:05.937Z,41.69
2023-01-05T19:01:15.773Z,41.73
2023-01-05T19:06:21.326Z,41.17
2023-01-05T19:11:26.657Z,42.23
2023-01-05T19:16:31.692Z,41.55
2023-01-05T19:21:36.795Z,42.29
2023-01-05T19:26:41.364Z,41.59
2023-01-05T19:31:46.388Z,41.35
2023-01-05T19:36:49.964Z,40.88
2023-01-05T19:41:54.093Z,41.57
2023-01-05T19:46:58.678Z,42.68
2023-01-05T19:52:03.278Z,42.16
2023-01-05T19:57:07.838Z,43.20
2023-01-05T20:02:11.312Z,42.53
2023-01-05T20:07:16.039Z,43.19
2023-01-05T20:12:20.946Z,44.47
2023-01-05T20:17:25.667Z,43.94
2023-01-05T20:22:30.354Z,43.63
2023-01-05T20:27:35.724Z,42.47
2023-01-05T20:32:40.135Z,40.81
2023-01-05T20:37:44.688Z,42.19
2023-01-05T20:42:48.741Z,41.62
2023-01-05T20:47:53.389Z,42.18
2023-01-05T20:52:59.136Z,41.51
2023-01-05T20:58:03.690Z,42.03
2023-01-05T21:03:08.865Z,43.34
2023-01-05T21:08:13.136Z,43.43
2023-01-05T21:13:30.557Z,43.46
2023-01-05T21:18:36.984Z,44.17
2023-01-05T21:23:42.383Z,43.05
2023-01-05T21:28:47.910Z,42.92
2023-01-05T21:33:53.253Z,43.46
2023-01-05T21:39:03.838Z,43.24
2023-01-05T21:44:11.599Z,42.57
2023-01-05T21:49:16.380Z,42.58
2023-01-05T21:54:39.565Z,42.48
2023-01-05T21:59:44.949Z,43.01
2023-01-05T22:04:49.726Z,42.71
2023-01-05T22:09:54.374Z,43.73
2023-01-05T22:14:59.519Z,42.80
2023-01-05T22:20:05.152Z,43.52
2023-01-05T22:25:11.140Z,43.42
2023-01-05T22:30:14.717Z,43.05
2023-01-05T22:35:20.074Z,43.16
2023-01-05T22:40:25.907Z,43.27
2023-01-05T22:45:30.607Z,45.97
2023-01-05T22:50:35.348Z,45.24
2023-01-05T22:55:39.379Z,43.69
2023-01-05T23:00:43.486Z,42.84
2023-01-05T23:05:48.178Z,44.62
2023-01-05T23:10:52.700Z,44.40
2023-01-05T23:15:57.455Z,43.28
2023-01-05T23:21:07.580Z,42.81
2023-01-05T23:26:15.525Z,43.73
2023-01-05T23:31:20.393Z,44.25
2023-01-05T23:36:26.112Z,43.59
2023-01-05T23:41:30.783Z,43.45
2023-01-05T23:46:35.189Z,44.62
2023-01-05T23:51:38.685Z,43.21
2023-01-05T23:56:43.218Z,43.44
